createdAt,value
2017-01-29T00:00:35.138Z,22.7
2017-01-29T00:01:49.489Z,22.7
2017-01-29T00:03:03.821Z,22.76
2017-01-29T00:04:18.200Z,22.65
2017-01-29T00:05:32.575Z,22.65
2017-01-29T00:06:46.955Z,22.65
2017-01-29T00:08:00.714Z,22.64
2017-01-29T00:09:15.042Z,22.7
2017-01-29T00:10:29.396Z,22.67
2017-01-29T00:11:43.775Z,22.73
2017-01-29T00:12:58.148Z,22.73
2017-01-29T00:14:11.226Z,22.62
2017-01-29T00:15:24.929Z,22.64
2017-01-29T00:16:39.322Z,22.65
2017-01-29T00:17:53.681Z,22.64
2017-01-29T00:19:07.399Z,22.64
2017-01-29T00:20:21.784Z,22.68
2017-01-29T00:21:36.149Z,22.77
2017-01-29T00:22:50.537Z,22.7
2017-01-29T00:24:04.954Z,22.72
2017-01-29T00:25:19.350Z,22.79
2017-01-29T00:26:33.717Z,22.68
2017-01-29T00:27:48.121Z,22.86
2017-01-29T00:29:02.530Z,22.73
2017-01-29T00:30:16.940Z,22.85
2017-01-29T00:31:31.351Z,22.77
2017-01-29T00:32:44.467Z,22.85
2017-01-29T00:33:58.854Z,22.77
2017-01-29T00:35:12.586Z,22.83
2017-01-29T00:36:26.326Z,22.85
2017-01-29T00:37:40.034Z,22.73
2017-01-29T00:38:54.398Z,22.82
2017-01-29T00:40:08.775Z,22.76
2017-01-29T00:41:22.512Z,22.77
2017-01-29T00:42:36.845Z,22.79
2017-01-29T00:43:51.253Z,22.8
2017-01-29T00:45:05.626Z,22.82
2017-01-29T00:46:20.009Z,22.77
2017-01-29T00:47:34.348Z,22.8
2017-01-29T00:48:48.250Z,22.68
2017-01-29T00:50:01.984Z,22.75
2017-01-29T00:51:15.048Z,22.8
2017-01-29T00:52:29.415Z,22.8
2017-01-29T00:53:43.839Z,22.72
2017-01-29T00:54:58.263Z,22.72
2017-01-29T00:56:11.992Z,22.83
2017-01-29T00:57:26.409Z,22.82
2017-01-29T00:58:40.137Z,22.67
2017-01-29T00:59:53.880Z,22.7
2017-01-29T01:01:08.222Z,22.62
2017-01-29T01:02:21.950Z,22.67
2017-01-29T01:03:36.321Z,22.65
2017-01-29T01:04:50.702Z,22.67
2017-01-29T01:06:05.021Z,22.62
2017-01-29T01:07:18.724Z,22.67
2017-01-29T01:08:33.099Z,22.61
2017-01-29T01:09:47.507Z,22.61
2017-01-29T01:11:01.882Z,22.58
2017-01-29T01:12:14.966Z,22.61
2017-01-29T01:13:29.352Z,22.65
2017-01-29T01:14:43.763Z,22.58
2017-01-29T01:15:58.174Z,22.64
2017-01-29T01:17:11.885Z,22.58
2017-01-29T01:18:26.243Z,22.6
2017-01-29T01:19:39.969Z,22.54
2017-01-29T01:20:54.525Z,22.55
2017-01-29T01:22:08.914Z,22.52
2017-01-29T01:23:23.321Z,22.57
2017-01-29T01:24:37.705Z,22.51
2017-01-29T01:25:52.052Z,22.55
2017-01-29T01:27:06.411Z,22.55
2017-01-29T01:28:20.810Z,22.49
2017-01-29T01:29:35.200Z,22.45
2017-01-29T01:30:49.634Z,22.35
2017-01-29T01:32:04.005Z,22.25
2017-01-29T01:33:18.391Z,22.2
2017-01-29T01:34:32.737Z,22.1
2017-01-29T01:35:47.109Z,22.06
2017-01-29T01:37:01.494Z,22.03
2017-01-29T01:38:15.197Z,22.02
2017-01-29T01:39:29.569Z,21.92
2017-01-29T01:40:44.116Z,21.99
2017-01-29T01:41:58.475Z,21.96
2017-01-29T01:43:12.205Z,21.9
2017-01-29T01:44:26.571Z,21.91
2017-01-29T01:45:39.632Z,21.83
2017-01-29T01:46:53.964Z,21.86
2017-01-29T01:48:08.358Z,21.9
2017-01-29T01:49:22.732Z,21.92
2017-01-29T01:50:37.149Z,21.9
2017-01-29T01:51:51.520Z,21.99
2017-01-29T01:53:05.882Z,21.92
2017-01-29T01:54:19.629Z,21.98
2017-01-29T01:55:33.968Z,22
2017-01-29T01:56:47.695Z,22.06
2017-01-29T01:58:01.423Z,22.1
2017-01-29T01:59:15.196Z,22.09
2017-01-29T02:00:29.587Z,22.09
2017-01-29T02:01:43.931Z,22.1
2017-01-29T02:02:58.330Z,22.1
2017-01-29T02:04:12.722Z,22.17
2017-01-29T02:05:27.111Z,22.14
2017-01-29T02:06:40.899Z,22.07
2017-01-29T02:07:55.224Z,22.14
2017-01-29T02:09:09.635Z,22.25
2017-01-29T02:10:23.381Z,22.24
2017-01-29T02:11:37.758Z,22.2
2017-01-29T02:12:52.142Z,22.17
2017-01-29T02:14:06.486Z,22.28
2017-01-29T02:15:20.877Z,22.2
2017-01-29T02:16:35.457Z,22.24
2017-01-29T02:17:49.845Z,22.24
2017-01-29T02:19:03.586Z,22.21
2017-01-29T02:20:17.965Z,22.24
2017-01-29T02:21:32.304Z,22.22
2017-01-29T02:22:46.679Z,22.25
2017-01-29T02:24:01.123Z,22.28
2017-01-29T02:25:15.492Z,22.33
2017-01-29T02:26:29.868Z,22.28
2017-01-29T02:27:44.271Z,22.25
2017-01-29T02:28:58.014Z,22.25
2017-01-29T02:30:11.737Z,22.07
2017-01-29T02:31:26.081Z,22.09
2017-01-29T02:32:40.462Z,21.94
2017-01-29T02:33:54.829Z,21.86
2017-01-29T02:35:09.243Z,21.77
2017-01-29T02:36:23.561Z,21.65
2017-01-29T02:37:37.947Z,21.59
2017-01-29T02:38:52.316Z,21.46
2017-01-29T02:40:06.051Z,21.42
2017-01-29T02:41:19.791Z,21.38
2017-01-29T02:42:34.338Z,21.22
2017-01-29T02:43:48.067Z,21.28
2017-01-29T02:45:02.454Z,21.22
2017-01-29T02:46:16.217Z,21.22
2017-01-29T02:47:30.562Z,21.07
2017-01-29T02:48:44.954Z,21.14
2017-01-29T02:49:58.681Z,21.19
2017-01-29T02:51:13.025Z,21.22
2017-01-29T02:52:27.410Z,21.14
2017-01-29T02:53:41.772Z,21.17
2017-01-29T02:54:55.493Z,21.24
2017-01-29T02:56:09.863Z,21.22
2017-01-29T02:57:24.237Z,21.17
2017-01-29T02:58:38.598Z,21.17
2017-01-29T02:59:52.989Z,21.21
2017-01-29T03:01:06.752Z,21.16
2017-01-29T03:02:21.200Z,21.1
2017-01-29T03:03:35.565Z,21.09
2017-01-29T03:04:49.906Z,21.14
2017-01-29T03:06:02.997Z,21.14
2017-01-29T03:07:16.711Z,21.09
2017-01-29T03:08:31.103Z,21.16
2017-01-29T03:09:45.431Z,21.12
2017-01-29T03:10:59.857Z,21.12
2017-01-29T03:12:14.279Z,21.12
2017-01-29T03:13:28.631Z,21.14
2017-01-29T03:14:42.983Z,21.07
2017-01-29T03:15:57.363Z,21.1
2017-01-29T03:17:11.763Z,21.14
2017-01-29T03:18:26.111Z,21.17
2017-01-29T03:19:40.505Z,21.21
2017-01-29T03:20:54.859Z,21.12
2017-01-29T03:22:08.563Z,21.17
2017-01-29T03:23:22.320Z,21.09
2017-01-29T03:24:36.663Z,21.16
2017-01-29T03:25:51.063Z,21.21
2017-01-29T03:27:04.158Z,21.29
2017-01-29T03:28:17.884Z,21.27
2017-01-29T03:29:34.237Z,21.27
2017-01-29T03:30:48.839Z,21.28
2017-01-29T03:32:03.219Z,21.27
2017-01-29T03:33:17.622Z,21.34
2017-01-29T03:34:31.982Z,21.24
2017-01-29T03:35:46.339Z,21.32
2017-01-29T03:37:00.709Z,21.35
2017-01-29T03:38:14.438Z,21.25
2017-01-29T03:39:28.844Z,21.28
2017-01-29T03:40:43.208Z,21.24
2017-01-29T03:41:57.536Z,21.25
2017-01-29T03:43:11.905Z,21.32
2017-01-29T03:44:26.266Z,21.28
2017-01-29T03:45:40.683Z,21.22
2017-01-29T03:46:55.029Z,21.28
2017-01-29T03:48:08.724Z,21.22
2017-01-29T03:49:22.421Z,21.29
2017-01-29T03:50:36.764Z,21.22
2017-01-29T03:51:51.179Z,21.28
2017-01-29T03:53:05.562Z,21.28
2017-01-29T03:54:19.914Z,21.27
2017-01-29T03:55:34.252Z,21.32
2017-01-29T03:56:48.623Z,21.24
2017-01-29T03:58:02.404Z,21.24
2017-01-29T03:59:16.787Z,21.21
2017-01-29T04:00:31.200Z,21.22
2017-01-29T04:01:45.538Z,21.25
2017-01-29T04:02:59.918Z,21.19
2017-01-29T04:04:13.627Z,21.19
2017-01-29T04:05:27.997Z,21.28
2017-01-29T04:06:42.340Z,21.31
2017-01-29T04:07:56.703Z,21.29
2017-01-29T04:09:11.059Z,21.22
2017-01-29T04:10:25.413Z,21.27
2017-01-29T04:11:39.785Z,21.28
2017-01-29T04:12:54.160Z,21.24
2017-01-29T04:14:07.227Z,21.27
2017-01-29T04:15:20.943Z,21.27
2017-01-29T04:16:35.329Z,21.24
2017-01-29T04:17:49.751Z,21.25
2017-01-29T04:19:03.483Z,21.24
2017-01-29T04:20:17.836Z,21.27
2017-01-29T04:21:32.182Z,21.16
2017-01-29T04:22:45.918Z,21.27
2017-01-29T04:24:00.284Z,21.25
2017-01-29T04:25:14.024Z,21.27
2017-01-29T04:26:27.731Z,21.27
2017-01-29T04:27:42.135Z,21.31
2017-01-29T04:28:56.517Z,21.28
2017-01-29T04:30:10.935Z,21.16
2017-01-29T04:31:25.363Z,21.19
2017-01-29T04:32:39.742Z,21.22
2017-01-29T04:33:54.122Z,21.25
2017-01-29T04:35:08.464Z,21.19
2017-01-29T04:36:22.816Z,21.25
2017-01-29T04:37:37.218Z,21.17
2017-01-29T04:38:50.951Z,21.22
2017-01-29T04:40:05.307Z,21.24
2017-01-29T04:41:19.680Z,21.19
2017-01-29T04:42:34.056Z,21.24
2017-01-29T04:43:48.416Z,21.22
2017-01-29T04:45:02.737Z,21.19
2017-01-29T04:46:17.080Z,21.24
2017-01-29T04:47:31.448Z,21.22
2017-01-29T04:48:45.846Z,21.28
2017-01-29T04:50:00.239Z,21.34
2017-01-29T04:51:14.015Z,21.27
2017-01-29T04:52:28.366Z,21.29
2017-01-29T04:53:42.725Z,21.32
2017-01-29T04:54:57.108Z,21.27
2017-01-29T04:56:10.848Z,21.25
2017-01-29T04:57:25.278Z,21.25
2017-01-29T04:58:39.636Z,21.28
2017-01-29T04:59:54.000Z,21.28
2017-01-29T05:01:07.740Z,21.22
2017-01-29T05:02:22.082Z,21.31
2017-01-29T05:03:36.476Z,21.21
2017-01-29T05:04:50.839Z,21.25
2017-01-29T05:06:05.187Z,21.31
2017-01-29T05:07:18.271Z,21.29
2017-01-29T05:08:32.668Z,21.29
2017-01-29T05:09:47.002Z,21.21
2017-01-29T05:11:01.378Z,21.27
2017-01-29T05:12:15.115Z,21.31
2017-01-29T05:13:29.467Z,21.28
2017-01-29T05:14:43.821Z,21.21
2017-01-29T05:15:58.203Z,21.28
2017-01-29T05:17:11.920Z,21.27
2017-01-29T05:18:26.317Z,21.19
2017-01-29T05:19:40.685Z,21.21
2017-01-29T05:20:55.073Z,21.22
2017-01-29T05:22:09.434Z,21.19
2017-01-29T05:23:22.538Z,21.27
2017-01-29T05:24:36.922Z,21.16
2017-01-29T05:25:51.312Z,21.17
2017-01-29T05:27:05.720Z,21.22
2017-01-29T05:28:20.102Z,21.24
2017-01-29T05:29:34.481Z,21.24
2017-01-29T05:30:48.852Z,21.19
2017-01-29T05:32:03.290Z,21.29
2017-01-29T05:33:17.088Z,21.25
2017-01-29T05:34:31.459Z,21.28
2017-01-29T05:35:45.811Z,21.27
2017-01-29T05:37:00.217Z,21.24
2017-01-29T05:38:13.964Z,21.27
2017-01-29T05:39:28.309Z,21.24
2017-01-29T05:40:42.683Z,21.24
2017-01-29T05:41:56.388Z,21.19
2017-01-29T05:43:10.743Z,21.27
2017-01-29T05:44:25.124Z,21.31
2017-01-29T05:45:39.486Z,21.25
2017-01-29T05:46:53.835Z,21.21
2017-01-29T05:48:08.209Z,21.25
2017-01-29T05:49:22.612Z,21.19
2017-01-29T05:50:36.978Z,21.24
2017-01-29T05:51:51.383Z,21.22
2017-01-29T05:53:05.088Z,21.19
2017-01-29T05:54:19.477Z,21.25
2017-01-29T05:55:33.840Z,21.28
2017-01-29T05:56:48.197Z,21.19
2017-01-29T05:58:02.540Z,21.12
2017-01-29T05:59:16.257Z,21.14
2017-01-29T06:00:30.599Z,21.14
2017-01-29T06:01:44.984Z,21.09
2017-01-29T06:02:59.343Z,21.21
2017-01-29T06:04:13.091Z,21.14
2017-01-29T06:05:27.465Z,21.16
2017-01-29T06:06:41.834Z,21.16
2017-01-29T06:07:56.209Z,21.17
2017-01-29T06:09:10.594Z,21.22
2017-01-29T06:10:24.969Z,21.12
2017-01-29T06:11:38.697Z,21.21
2017-01-29T06:12:53.060Z,21.22
2017-01-29T06:14:07.425Z,21.22
2017-01-29T06:15:21.822Z,21.25
2017-01-29T06:16:36.195Z,21.21
2017-01-29T06:17:50.578Z,21.19
2017-01-29T06:19:04.981Z,21.34
2017-01-29T06:20:18.741Z,21.25
2017-01-29T06:21:33.102Z,21.31
2017-01-29T06:22:47.499Z,21.34
2017-01-29T06:24:01.895Z,21.31
2017-01-29T06:25:14.979Z,21.29
2017-01-29T06:26:28.703Z,21.27
2017-01-29T06:27:43.112Z,21.29
2017-01-29T06:28:56.855Z,21.35
2017-01-29T06:30:11.235Z,21.37
2017-01-29T06:31:25.628Z,21.4
2017-01-29T06:32:39.964Z,21.5
2017-01-29T06:33:54.308Z,21.46
2017-01-29T06:35:08.668Z,21.37
2017-01-29T06:36:22.418Z,21.43
2017-01-29T06:37:36.750Z,21.43
2017-01-29T06:38:51.090Z,21.37
2017-01-29T06:40:05.490Z,21.34
2017-01-29T06:41:19.270Z,21.37
2017-01-29T06:42:33.006Z,21.37
2017-01-29T06:43:47.388Z,21.37
2017-01-29T06:45:01.130Z,21.25
2017-01-29T06:46:14.840Z,21.31
2017-01-29T06:47:29.260Z,21.22
2017-01-29T06:48:43.652Z,21.14
2017-01-29T06:49:58.000Z,21.13
2017-01-29T06:51:12.411Z,21.13
2017-01-29T06:52:26.779Z,21.12
2017-01-29T06:53:40.524Z,21.07
2017-01-29T06:54:54.938Z,21.06
2017-01-29T06:56:08.697Z,21.07
2017-01-29T06:57:22.412Z,21.07
2017-01-29T06:58:36.774Z,20.97
2017-01-29T06:59:50.494Z,21.03
2017-01-29T07:01:04.856Z,20.99
2017-01-29T07:02:19.238Z,21.04
2017-01-29T07:03:33.612Z,21.01
2017-01-29T07:04:47.979Z,21.04
2017-01-29T07:06:02.325Z,20.98
2017-01-29T07:07:15.375Z,21.09
2017-01-29T07:08:29.720Z,21.01
2017-01-29T07:09:44.108Z,20.99
2017-01-29T07:10:58.512Z,20.95
2017-01-29T07:12:12.944Z,21.03
2017-01-29T07:13:27.314Z,20.95
2017-01-29T07:14:41.654Z,21.01
2017-01-29T07:15:56.013Z,20.99
2017-01-29T07:17:10.393Z,21.04
2017-01-29T07:18:24.137Z,20.99
2017-01-29T07:19:38.478Z,21.01
2017-01-29T07:20:52.850Z,21.03
2017-01-29T07:22:07.230Z,20.99
2017-01-29T07:23:21.646Z,21.04
2017-01-29T07:24:36.029Z,21.14
2017-01-29T07:25:50.379Z,21.04
2017-01-29T07:27:04.744Z,21.07
2017-01-29T07:28:19.111Z,21.1
2017-01-29T07:29:33.446Z,21.06
2017-01-29T07:30:47.131Z,21.12
2017-01-29T07:32:01.481Z,21.1
2017-01-29T07:33:15.208Z,21.12
2017-01-29T07:34:29.550Z,21.13
2017-01-29T07:35:43.903Z,21.13
2017-01-29T07:36:58.293Z,21.1
2017-01-29T07:38:11.383Z,21.09
2017-01-29T07:39:25.761Z,21.03
2017-01-29T07:40:40.164Z,21.07
2017-01-29T07:41:54.534Z,21.06
2017-01-29T07:43:08.904Z,21.03
2017-01-29T07:44:22.650Z,21.09
2017-01-29T07:45:37.037Z,21.03
2017-01-29T07:46:51.405Z,21.04
2017-01-29T07:48:05.094Z,21.09
2017-01-29T07:49:18.174Z,21.1
2017-01-29T07:50:32.528Z,21.1
2017-01-29T07:51:46.880Z,21.13
2017-01-29T07:53:01.218Z,21.12
2017-01-29T07:54:14.283Z,21.07
2017-01-29T07:55:28.654Z,21.12
2017-01-29T07:56:43.062Z,21.12
2017-01-29T07:57:57.433Z,21.12
2017-01-29T07:59:11.802Z,21.09
2017-01-29T08:00:26.184Z,21.06
2017-01-29T08:01:40.562Z,21.04
2017-01-29T08:02:54.927Z,20.99
2017-01-29T08:04:09.280Z,20.99
2017-01-29T08:05:23.615Z,20.98
2017-01-29T08:06:37.993Z,20.92
2017-01-29T08:07:52.367Z,20.92
2017-01-29T08:09:06.715Z,20.88
2017-01-29T08:10:19.799Z,20.95
2017-01-29T08:11:34.196Z,20.89
2017-01-29T08:12:48.571Z,20.79
2017-01-29T08:14:02.954Z,20.76
2017-01-29T08:15:17.341Z,20.8
2017-01-29T08:16:31.706Z,20.84
2017-01-29T08:17:45.444Z,20.74
2017-01-29T08:18:59.812Z,20.74
2017-01-29T08:20:13.537Z,20.7
2017-01-29T08:21:27.924Z,20.77
2017-01-29T08:22:42.293Z,20.67
2017-01-29T08:23:56.679Z,20.74
2017-01-29T08:25:11.065Z,20.77
2017-01-29T08:26:25.463Z,20.76
2017-01-29T08:27:39.805Z,20.82
2017-01-29T08:28:54.184Z,20.7
2017-01-29T08:30:08.550Z,20.67
2017-01-29T08:31:22.918Z,20.72
2017-01-29T08:32:37.278Z,20.7
2017-01-29T08:33:51.655Z,20.77
2017-01-29T08:35:05.388Z,20.8
2017-01-29T08:36:18.439Z,20.77
2017-01-29T08:37:32.180Z,20.84
2017-01-29T08:38:46.524Z,20.79
2017-01-29T08:39:59.572Z,20.73
2017-01-29T08:41:13.966Z,20.79
2017-01-29T08:42:28.302Z,20.79
2017-01-29T08:43:42.695Z,20.89
2017-01-29T08:44:57.020Z,20.74
2017-01-29T08:46:10.803Z,20.66
2017-01-29T08:47:25.200Z,20.73
2017-01-29T08:48:39.624Z,20.79
2017-01-29T08:49:54.017Z,20.74
2017-01-29T08:51:08.411Z,20.74
2017-01-29T08:52:22.832Z,20.72
2017-01-29T08:53:37.229Z,20.69
2017-01-29T08:54:50.959Z,20.73
2017-01-29T08:56:05.353Z,20.77
2017-01-29T08:57:19.091Z,20.73
2017-01-29T08:58:33.463Z,20.84
2017-01-29T08:59:47.843Z,20.76
2017-01-29T09:01:02.199Z,20.82
2017-01-29T09:02:15.905Z,20.89
2017-01-29T09:03:30.247Z,20.88
2017-01-29T09:04:44.613Z,20.92
2017-01-29T09:05:58.986Z,20.98
2017-01-29T09:07:13.379Z,21.04
2017-01-29T09:08:27.090Z,21.14
2017-01-29T09:09:40.828Z,21.22
2017-01-29T09:10:54.567Z,21.24
2017-01-29T09:12:08.913Z,21.32
2017-01-29T09:13:22.864Z,21.25
2017-01-29T09:14:37.265Z,21.38
2017-01-29T09:15:51.665Z,21.38
2017-01-29T09:17:06.026Z,21.47
2017-01-29T09:18:20.373Z,21.5
2017-01-29T09:19:34.076Z,21.52
2017-01-29T09:20:48.434Z,21.56
2017-01-29T09:22:02.795Z,21.56
2017-01-29T09:23:16.520Z,21.62
2017-01-29T09:24:30.272Z,21.56
2017-01-29T09:25:44.588Z,21.61
2017-01-29T09:26:58.962Z,21.75
2017-01-29T09:28:13.326Z,21.88
2017-01-29T09:29:27.681Z,21.9
2017-01-29T09:30:42.032Z,22.12
2017-01-29T09:31:56.427Z,22.39
2017-01-29T09:33:10.170Z,22.61
2017-01-29T09:34:24.522Z,23
2017-01-29T09:35:38.901Z,23.27
2017-01-29T09:36:53.278Z,23.36
2017-01-29T09:38:06.998Z,23.42
2017-01-29T09:39:21.380Z,23.57
2017-01-29T09:40:35.759Z,23.7
2017-01-29T09:41:50.149Z,23.91
2017-01-29T09:43:04.514Z,23.91
2017-01-29T09:44:18.266Z,23.94
2017-01-29T09:45:32.618Z,23.66
2017-01-29T09:46:47.014Z,23.4
2017-01-29T09:48:00.758Z,23.27
2017-01-29T09:49:13.832Z,23.07
2017-01-29T09:50:28.249Z,22.82
2017-01-29T09:51:42.594Z,22.76
2017-01-29T09:52:56.980Z,22.79
2017-01-29T09:54:11.390Z,22.75
2017-01-29T09:55:25.761Z,22.86
2017-01-29T09:56:40.130Z,22.91
2017-01-29T09:57:54.570Z,22.94
2017-01-29T09:59:08.959Z,23.07
2017-01-29T10:00:23.352Z,23.23
2017-01-29T10:01:37.730Z,23.23
2017-01-29T10:02:52.124Z,23.35
2017-01-29T10:04:05.915Z,23.1
2017-01-29T10:05:20.268Z,23.01
2017-01-29T10:06:34.609Z,22.85
2017-01-29T10:07:48.969Z,22.86
2017-01-29T10:09:03.346Z,22.86
2017-01-29T10:10:17.738Z,22.97
2017-01-29T10:11:32.129Z,23.04
2017-01-29T10:12:45.861Z,22.94
2017-01-29T10:14:00.242Z,22.94
2017-01-29T10:15:13.956Z,22.97
2017-01-29T10:16:27.678Z,22.85
2017-01-29T10:17:42.042Z,22.79
2017-01-29T10:18:56.389Z,22.72
2017-01-29T10:20:10.139Z,22.67
2017-01-29T10:21:23.863Z,22.61
2017-01-29T10:22:38.219Z,22.65
2017-01-29T10:23:52.591Z,22.65
2017-01-29T10:25:06.972Z,22.65
2017-01-29T10:26:21.337Z,22.62
2017-01-29T10:27:35.100Z,22.79
2017-01-29T10:28:49.465Z,22.77
2017-01-29T10:30:03.833Z,22.91
2017-01-29T10:31:18.186Z,22.9
2017-01-29T10:32:32.567Z,23.01
2017-01-29T10:33:46.892Z,23
2017-01-29T10:35:01.288Z,23.07
2017-01-29T10:36:14.371Z,23.2
2017-01-29T10:37:28.747Z,23.27
2017-01-29T10:38:43.093Z,23.47
2017-01-29T10:39:57.460Z,23.69
2017-01-29T10:41:11.819Z,23.87
2017-01-29T10:42:25.504Z,23.87
2017-01-29T10:43:39.222Z,23.93
2017-01-29T10:44:53.584Z,23.95
2017-01-29T10:46:07.336Z,24.34
2017-01-29T10:47:21.040Z,24.93
2017-01-29T10:48:35.412Z,25.6
2017-01-29T10:49:49.799Z,26.48
2017-01-29T10:51:04.207Z,27.24
2017-01-29T10:52:17.957Z,27.92
2017-01-29T10:53:32.351Z,27.96
2017-01-29T10:54:46.069Z,28.17
2017-01-29T10:56:00.448Z,28.04
2017-01-29T10:57:14.865Z,27.43
2017-01-29T10:58:29.429Z,27.28
2017-01-29T10:59:43.814Z,27.36
2017-01-29T11:00:57.553Z,27.32
2017-01-29T11:02:11.926Z,27.04
2017-01-29T11:03:26.290Z,27.12
2017-01-29T11:04:40.029Z,27.17
2017-01-29T11:05:54.416Z,27.34
2017-01-29T11:07:08.750Z,27.84
2017-01-29T11:08:23.130Z,28.52
2017-01-29T11:09:37.521Z,28.52
2017-01-29T11:10:51.851Z,28.34
2017-01-29T11:12:06.231Z,28.29
2017-01-29T11:13:19.963Z,28.19
2017-01-29T11:14:34.341Z,28.44
2017-01-29T11:15:48.717Z,28.8
2017-01-29T11:17:03.116Z,29.34
2017-01-29T11:18:17.523Z,29.55
2017-01-29T11:19:31.884Z,29.98
2017-01-29T11:20:46.312Z,30.01
2017-01-29T11:22:00.684Z,29.74
2017-01-29T11:23:14.389Z,29.18
2017-01-29T11:24:28.775Z,29.18
2017-01-29T11:25:42.518Z,29.31
2017-01-29T11:26:56.268Z,28.93
2017-01-29T11:28:10.056Z,28.9
2017-01-29T11:29:24.528Z,28.9
2017-01-29T11:30:38.880Z,28.34
2017-01-29T11:31:53.246Z,27.94
2017-01-29T11:33:07.643Z,27.7
2017-01-29T11:34:22.029Z,27.5
2017-01-29T11:35:36.416Z,27.34
2017-01-29T11:36:50.794Z,27.27
2017-01-29T11:38:05.183Z,27.06
2017-01-29T11:39:19.552Z,26.69
2017-01-29T11:40:33.916Z,26.65
2017-01-29T11:41:48.270Z,26.73
2017-01-29T11:43:02.022Z,26.85
2017-01-29T11:44:16.450Z,26.92
2017-01-29T11:45:30.829Z,26.77
2017-01-29T11:46:45.228Z,26.66
2017-01-29T11:47:59.617Z,26.55
2017-01-29T11:49:13.338Z,26.55
2017-01-29T11:50:27.680Z,26.36
2017-01-29T11:51:41.438Z,25.94
2017-01-29T11:52:55.819Z,25.61
2017-01-29T11:54:09.537Z,25.52
2017-01-29T11:55:23.252Z,25.35
2017-01-29T11:56:38.002Z,25.38
2017-01-29T11:57:52.340Z,25.36
2017-01-29T11:59:06.719Z,25.52
2017-01-29T12:00:21.064Z,25.77
2017-01-29T12:01:35.464Z,26.4
2017-01-29T12:02:49.850Z,26.7
2017-01-29T12:04:04.223Z,26.88
2017-01-29T12:05:17.925Z,26.8
2017-01-29T12:06:31.672Z,26.54
2017-01-29T12:07:46.017Z,26.12
2017-01-29T12:09:00.400Z,25.92
2017-01-29T12:10:14.122Z,25.79
2017-01-29T12:11:28.571Z,25.64
2017-01-29T12:12:42.321Z,25.7
2017-01-29T12:13:56.682Z,25.82
2017-01-29T12:15:11.059Z,25.95
2017-01-29T12:16:25.471Z,26.12
2017-01-29T12:17:39.244Z,26.32
2017-01-29T12:18:53.649Z,26.36
2017-01-29T12:20:08.010Z,26.51
2017-01-29T12:21:21.723Z,26.52
2017-01-29T12:22:35.441Z,26.7
2017-01-29T12:23:49.825Z,26.99
2017-01-29T12:25:04.192Z,26.82
2017-01-29T12:26:17.930Z,26.81
2017-01-29T12:27:32.286Z,26.69
2017-01-29T12:28:46.022Z,26.65
2017-01-29T12:30:00.384Z,26.65
2017-01-29T12:31:14.781Z,26.6
2017-01-29T12:32:29.150Z,26.75
2017-01-29T12:34:07.481Z,27.07
2017-01-29T12:35:21.845Z,27.36
2017-01-29T12:36:36.275Z,27.75
2017-01-29T12:37:50.652Z,28.15
2017-01-29T12:39:05.002Z,28.68
2017-01-29T12:40:19.367Z,28.7
2017-01-29T12:41:33.792Z,28.71
2017-01-29T12:42:46.277Z,28.89
2017-01-29T12:44:00.674Z,29.33
2017-01-29T12:45:15.042Z,29.42
2017-01-29T12:46:29.417Z,29.52
2017-01-29T12:47:43.800Z,29.65
2017-01-29T12:48:58.168Z,29.64
2017-01-29T12:50:11.908Z,29.64
2017-01-29T12:51:26.276Z,29.26
2017-01-29T12:52:40.687Z,29.15
2017-01-29T12:53:54.421Z,29.09
2017-01-29T12:55:08.157Z,29.23
2017-01-29T12:56:22.542Z,29.6
2017-01-29T12:57:36.944Z,30.11
2017-01-29T12:58:51.335Z,29.94
2017-01-29T13:00:05.819Z,29.51
2017-01-29T13:01:19.631Z,29.16
2017-01-29T13:02:33.980Z,28.9
2017-01-29T13:03:48.358Z,29.14
2017-01-29T13:05:02.140Z,29.28
2017-01-29T13:06:16.680Z,29.7
2017-01-29T13:07:31.059Z,30.2
2017-01-29T13:08:45.415Z,30.79
2017-01-29T13:09:59.198Z,31.48
2017-01-29T13:11:12.940Z,31.81
2017-01-29T13:12:27.311Z,31.66
2017-01-29T13:13:41.693Z,31.66
2017-01-29T13:14:56.103Z,31.76
2017-01-29T13:16:10.492Z,31.92
2017-01-29T13:17:24.852Z,32.15
2017-01-29T13:18:39.297Z,32.13
2017-01-29T13:19:53.711Z,32.33
2017-01-29T13:21:08.158Z,32.63
2017-01-29T13:22:22.513Z,32.7
2017-01-29T13:23:36.876Z,32.88
2017-01-29T13:24:50.607Z,32.84
2017-01-29T13:26:04.951Z,32.38
2017-01-29T13:27:18.703Z,31.54
2017-01-29T13:28:33.100Z,31.02
2017-01-29T13:29:46.197Z,30.64
2017-01-29T13:31:00.588Z,30.7
2017-01-29T13:32:14.326Z,31.02
2017-01-29T13:33:28.753Z,31.32
2017-01-29T13:34:43.122Z,31.78
2017-01-29T13:35:57.511Z,32.35
2017-01-29T13:37:11.866Z,32.32
2017-01-29T13:38:25.587Z,32.13
2017-01-29T13:39:39.970Z,31.93
2017-01-29T13:40:54.332Z,31.76
2017-01-29T13:42:08.741Z,31.76
2017-01-29T13:43:23.087Z,31.66
2017-01-29T13:44:37.450Z,31.63
2017-01-29T13:45:51.843Z,31.69
2017-01-29T13:47:06.211Z,32.18
2017-01-29T13:48:20.642Z,32.55
2017-01-29T13:49:35.015Z,32.56
2017-01-29T13:50:48.131Z,31.84
2017-01-29T13:52:02.533Z,31.62
2017-01-29T13:53:16.901Z,31.73
2017-01-29T13:54:31.281Z,31.7
2017-01-29T13:55:45.653Z,30.65
2017-01-29T13:57:00.056Z,30.45
2017-01-29T13:58:13.779Z,30.49
2017-01-29T13:59:28.169Z,30.73
2017-01-29T14:00:42.542Z,31.36
2017-01-29T14:01:56.280Z,31.84
2017-01-29T14:03:09.989Z,31.96
2017-01-29T14:04:24.372Z,31.66
2017-01-29T14:05:38.782Z,31.41
2017-01-29T14:06:53.188Z,31.5
2017-01-29T14:08:07.587Z,31.76
2017-01-29T14:09:21.349Z,32.22
2017-01-29T14:10:35.722Z,32.6
2017-01-29T14:11:49.482Z,32.5
2017-01-29T14:13:03.884Z,32.62
2017-01-29T14:14:18.272Z,32.89
2017-01-29T14:15:32.855Z,33.31
2017-01-29T14:16:47.250Z,33.81
2017-01-29T14:18:01.628Z,34.19
2017-01-29T14:19:14.746Z,34.47
2017-01-29T14:20:29.131Z,34.34
2017-01-29T14:21:43.530Z,34.19
2017-01-29T14:22:57.921Z,33.63
2017-01-29T14:24:12.345Z,33.45
2017-01-29T14:25:26.101Z,33.57
2017-01-29T14:26:40.461Z,33.31
2017-01-29T14:27:54.855Z,32.65
2017-01-29T14:29:09.265Z,32.79
2017-01-29T14:30:23.012Z,32.5
2017-01-29T14:31:37.427Z,32
2017-01-29T14:32:51.154Z,31.7
2017-01-29T14:34:04.922Z,31.34
2017-01-29T14:35:19.319Z,31.66
2017-01-29T14:36:33.042Z,31.93
2017-01-29T14:37:47.418Z,32.45
2017-01-29T14:39:01.159Z,32.5
2017-01-29T14:40:14.897Z,32.38
2017-01-29T15:58:39.326Z,34.58
2017-01-29T15:59:53.754Z,35.38
2017-01-29T16:01:08.159Z,35.65
2017-01-29T16:09:02.323Z,33.29
2017-01-29T16:10:16.743Z,32.96
2017-01-29T16:11:30.498Z,32.72
2017-01-29T16:12:44.867Z,32.59
2017-01-29T16:13:59.302Z,32.29
2017-01-29T16:15:13.701Z,32.03
2017-01-29T16:16:28.123Z,31.96
2017-01-29T16:17:42.489Z,32.25
2017-01-29T16:18:56.198Z,33.01
2017-01-29T16:20:09.278Z,34.13
2017-01-29T16:21:23.676Z,35.11
2017-01-29T16:22:38.096Z,36.05
2017-01-29T16:23:51.849Z,36.69
2017-01-29T16:25:06.220Z,37.13
2017-01-29T16:26:20.619Z,37.75
2017-01-29T16:27:34.999Z,38.04
2017-01-29T16:28:49.380Z,37.67
2017-01-29T16:30:03.764Z,37.74
2017-01-29T16:31:17.504Z,38.23
2017-01-29T16:32:31.886Z,38.26
2017-01-29T16:33:46.335Z,38.2
2017-01-29T16:35:00.723Z,38
2017-01-29T16:36:15.140Z,38.22
2017-01-29T16:37:29.548Z,37.55
2017-01-29T16:38:43.934Z,35.94
2017-01-29T16:39:57.643Z,34.94
2017-01-29T16:41:11.997Z,34.91
2017-01-29T16:42:26.365Z,35.03
2017-01-29T16:43:40.722Z,35.02
2017-01-29T16:44:54.473Z,35.59
2017-01-29T16:46:08.253Z,36.35
2017-01-29T16:47:22.711Z,36.39
2017-01-29T16:48:37.105Z,36.51
2017-01-29T16:49:51.537Z,37.05
2017-01-29T16:51:05.962Z,38.01
2017-01-29T16:52:19.710Z,38.65
2017-01-29T16:53:34.106Z,39.23
2017-01-29T16:54:48.526Z,39.11
2017-01-29T16:56:02.290Z,38.13
2017-01-29T16:57:16.054Z,36.85
2017-01-29T16:58:30.450Z,35.72
2017-01-29T16:59:44.832Z,35.55
2017-01-29T17:00:59.264Z,35.78
2017-01-29T17:02:13.698Z,36.23
2017-01-29T17:03:28.072Z,36.83
2017-01-29T17:04:42.493Z,36.37
2017-01-29T17:05:56.875Z,35.48
2017-01-29T17:07:11.244Z,35.38
2017-01-29T17:08:25.623Z,35.18
2017-01-29T17:09:40.016Z,35.33
2017-01-29T17:10:53.803Z,35.65
2017-01-29T17:12:07.542Z,35.9
2017-01-29T17:13:21.961Z,36.17
2017-01-29T17:14:36.382Z,36.37
2017-01-29T17:15:50.784Z,35.53
2017-01-29T17:17:05.169Z,35.44
2017-01-29T17:18:18.921Z,35.31
2017-01-29T17:19:33.339Z,35.58
2017-01-29T17:20:47.735Z,36
2017-01-29T17:22:02.134Z,36.29
2017-01-29T17:23:15.207Z,36.13